AirNav   TITAN Aviation Fuels
 
 993 users online  

AZ59 Cross Cut Heliport
Tempe, Arizona, USA

GOING TO TEMPE?


FAA INFORMATION EFFECTIVE 08 SEPTEMBER 2022

Location

FAA Identifier: AZ59
Lat/Long: 33-26-30.1610N 111-57-00.5180W
33-26.502683N 111-57.008633W
33.4417114,-111.9501439
(estimated)
Elevation: 1180 ft. / 360 m (estimated)
Variation: 13E (1985)
From city: 4 miles NW of TEMPE, AZ
Time zone: UTC -7 (year round; does not observe DST)
Zip code: 85281

Heliport Operations

Heliport use: Private use. Permission required prior to landing
Activation date: 09/1982
Control tower: no
ARTCC: ALBUQUERQUE CENTER
FSS: PRESCOTT FLIGHT SERVICE STATION
Attendance: UNATNDD
Wind indicator: lighted
Segmented circle: no
Lights: SS-SR

Heliport Communications

WX ASOS at PHX (3 nm W): PHONE 602-231-8557
WX ASOS at SDL (11 nm N): PHONE 480-483-3049
WX ASOS at FFZ (11 nm E): PHONE 480-641-4111
WX AWOS-3PT at CHD (12 nm SE): PHONE 480-814-9952
WX ASOS at DVT (16 nm NW): 126.5 (623-587-7764)
WX AWOS-3 at IWA (17 nm SE): 133.5 (480-988-9428)
WX AWOS-3 at GEU (18 nm W): PHONE 623-877-8609

Nearby radio navigation aids

VOR radial/distance  VOR name  Freq  Var
PXRr051/1.1PHOENIX VORTAC115.6012E
IWAr286/17.1WILLIE VORTAC113.3013E
TFDr344/33.4STANFIELD VORTAC114.8012E

Heliport Services

Runway Information

Helipad H1

Dimensions: 20 x 20 ft. / 6 x 6 m
Surface: concrete
Runway edge lights: PERI
Latitude: 33-26.502667N
Longitude: 111-57.008667W
Elevation: 1180.0 ft.
Traffic pattern: leftleft

Heliport Ownership and Management from official FAA records

Ownership: Privately-owned
Owner: SALT RIVER PROJECT
2601 E. AIRLANE
PHOENIX, AZ 85034
Phone 602-236-2253
Manager: JEFFREY R. CAMPBELL
2601 E. AIRLANE
PHOENIX, AZ 85034
Phone 602-236-8050

Additional Remarks

FOR CD CTC PHOENIX APCH AT 602-306-2565.

Instrument Procedures

There are no published instrument procedures at AZ59.

Some nearby airports with instrument procedures:

KPHX - Phoenix Sky Harbor International Airport (3 nm W)
P19 - Stellar Airpark (9 nm S)
KSDL - Scottsdale Airport (11 nm N)
KFFZ - Falcon Field Airport (11 nm E)
KCHD - Chandler Municipal Airport (12 nm SE)
KDVT - Phoenix Deer Valley Airport (16 nm NW)
KIWA - Phoenix-Mesa Gateway Airport (17 nm SE)
KGEU - Glendale Municipal Airport (18 nm W)
 
Loc | Ops | Rwys | IFR | FBO | Links
Com | Nav | Svcs | Stats | Notes
Area around AZ59 (Cross Cut Heliport)
 
Road maps at: MapQuest Bing Google
 
Aerial photo
No photo
 
Sectional chart

 
Airport distance calculator
Flying to Cross Cut Heliport? Find the distance to fly.

From to AZ59

Sunrise and sunset
Times for 02-Oct-2022
 Local
(UTC-7)
 Zulu
(UTC)
Morning civil twilight05:5912:59
Sunrise06:2413:24
Sunset18:1001:10
Evening civil twilight18:3501:35

Current date and time
Zulu (UTC)  02-Oct-2022 19:40:07
Local (UTC-7)  02-Oct-2022 12:40:07
 
METAR
KPHX 
5nm W 
021851Z 12006KT 10SM FEW100 FEW250 33/13 A2990 RMK AO2 SLP104 TCU DSNT NW T03280133 $
KSDL 
11nm N 
021853Z VRB06KT 10SM CLR 32/13 A2994 RMK AO2 SLP111 T03170128
KFFZ 
12nm E 
021854Z VRB04KT 10SM CLR 32/14 A2992 RMK AO2 SLP106 T03170139
KCHD 
12nm SE 
021847Z 00000KT 10SM CLR 33/14 A2992
KDVT 
16nm N 
021853Z 20008G16KT 10SM CLR 32/13 A2993 RMK AO2 SLP109 T03220128
KIWA 
17nm SE 
021853Z VRB03KT 10SM CLR 32/12 A2993
KGEU 
18nm W 
021852Z VRB03KT 10SM SKC 33/15 A2990
TAF
KPHX 
5nm W 
021720Z 0218/0324 16007KT P6SM FEW100 FEW150 FM022200 21007KT P6SM FEW100 FEW150 FM030000 25006KT P6SM FEW100 FEW150 FM030400 10005KT P6SM FEW100 SCT150 SCT250 FM031700 14008KT P6SM FEW100 FEW150 FM032100 28008KT P6SM FEW100 FEW150
KSDL 
11nm N 
021720Z 0218/0318 VRB04KT P6SM FEW100 FEW150 FM022100 21007KT P6SM FEW100 FEW150 FM030300 04005KT P6SM FEW100 SCT150 SCT250 FM030800 VRB03KT P6SM FEW100 FEW150
KDVT 
16nm N 
021720Z 0218/0318 18008KT P6SM FEW100 FEW150 FM022200 23009KT P6SM FEW100 FEW150 FM030400 03008KT P6SM FEW100 SCT150 SCT250 FM030900 VRB04KT P6SM FEW100 FEW150
KIWA 
17nm SE 
021720Z 0218/0318 18008KT P6SM FEW100 FEW150 FM022200 22007KT P6SM FEW100 FEW150 FM030000 26006KT P6SM FEW100 FEW150 FM030300 07005KT P6SM FEW100 SCT150 SCT250 FM030500 13008KT P6SM FEW100 FEW150
NOTAMs
Click for the latest NOTAMs
NOTAMs are issued by the DoD/FAA and will open in a separate window not controlled by AirNav.

 

 
 

Would you like to see your business listed on this page?

 If your business provides an interesting product or service to pilots, flight crews, aircraft, or users of the Cross Cut Heliport, you should consider listing it here.  To start the listing process, click on the button below
 
Add a business
 

Other Pages about Cross Cut Heliport

Update a link
 
Copyright © AirNav, LLC. All rights reserved. Privacy Policy  Contact